x

8419317 - Wells, Me (welm1) Weather Station

5:54 - Sat 3rd Dec 2016 All times are EST. -5 hours from GMT.

  • Wind
    6mph, 7mph gusts
  • Sea Temp 48°f
  • Ar Temp 38°f
  • Sea Pressure 1014.1mb
  • 8419317 - Wells, Me
  • 8419317 - Wells, Me

More Historic Weather Station data

Upgrade to MSW Pro to gain access to the past 30 days of data for over 8000 Wavebouys and Weather Stations around the globe.

Join Pro

Comparision Forecast

View Surf forecast
   
Sáb 12/03 5:54 6 7 mph 1014.1mb 48f 38f
5:48 7 10 mph 1014mb 48f 38f
5:42 6 7 mph 1013.9mb 48f 38f
5:36 5 8 mph 1013.9mb 48f 38f
5:30 6 8 mph 1013.8mb 48f 39f
5:24 6 7 mph 1013.8mb 48f 39f
5:18 5 6 mph 1013.6mb 48f 39f
5:12 2 5 mph 1013.5mb 48f 39f
5:06 3 8 mph 1013.4mb 48f 39f
5:00 6 9 mph 1013.3mb 48f 39f
4:54 7 10 mph 1013.2mb 48f 40f
4:48 7 10 mph 1013.1mb 48f 40f
4:42 7 14 mph 1013mb 48f 40f
4:36 11 17 mph 1012.9mb 48f 40f
4:30 10 18 mph 1012.8mb 48f 40f
4:24 10 18 mph 1012.6mb 48f 40f
4:18 10 15 mph 1012.5mb 48f 41f
4:12 10 15 mph 1012.4mb 48f 41f
4:06 14 16 mph 1012.3mb 48f 41f
4:00 9 13 mph 1012.2mb 48f 41f
3:54 9 15 mph 1012.1mb 48f 41f
3:48 11 16 mph 1011.9mb 48f 42f
3:42 11 17 mph 1011.7mb 48f 42f
3:36 11 16 mph 1011.6mb 48f 42f
3:30 11 16 mph 1011.6mb 48f 42f
3:24 13 16 mph 1011.5mb 48f 42f
3:18 8 13 mph 1011.4mb 48f 42f
3:12 9 16 mph 1011.3mb 48f 42f
3:06 13 15 mph 1011.2mb 48f 42f
3:00 13 20 mph 1011.1mb 48f 43f
2:54 11 20 mph 1011mb 48f 43f
2:48 13 17 mph 1010.9mb 48f 43f
2:42 9 14 mph 1010.8mb 48f 43f
2:36 10 14 mph 1010.7mb 48f 43f
2:30 13 18 mph 1010.6mb 48f 43f
2:24 10 14 mph 1010.5mb 48f 43f
2:18 10 15 mph 1010.5mb 48f 43f
2:12 10 20 mph 1010.4mb 48f 43f
2:06 15 23 mph 1010.3mb 48f 43f
2:00 16 23 mph 1010.2mb 48f 44f
1:54 16 24 mph 1010.2mb 48f 44f
1:48 15 21 mph 1010.2mb 48f 44f
1:42 17 24 mph 1010.1mb 48f 43f
1:36 14 18 mph 1010.1mb 48f 43f
1:30 14 18 mph 1010.1mb 48f 43f
1:24 10 22 mph 1010.1mb 48f 44f
1:18 11 18 mph 1010.1mb 48f 44f
1:12 15 22 mph 1010mb 48f 44f
1:06 14 17 mph 1010mb 48f 44f
1:00 14 17 mph 1009.9mb 48f 44f
12:54 13 16 mph 1009.9mb 48f 44f
12:48 13 20 mph 1009.9mb 48f 43f
12:42 14 18 mph 1009.8mb 48f 43f
12:36 11 20 mph 1009.9mb 48f 43f
12:30 15 21 mph 1009.8mb 48f 43f
12:24 13 17 mph 1009.8mb 48f 43f
12:18 11 20 mph 1009.8mb 48f 43f
12:12 14 20 mph 1009.8mb 48f 43f
12:06 13 18 mph 1009.8mb 48f 43f
12:00 10 20 mph 1009.8mb 48f 43f
11:54 14 23 mph 1009.7mb 48f 43f
11:48 17 22 mph 1009.6mb 48f 43f
11:42 14 18 mph 1009.7mb 48f 44f
11:36 14 21 mph 1009.6mb 48f 44f
11:30 21 25 mph 1009.6mb 48f 43f
11:24 13 20 mph 1009.5mb 48f 44f
11:18 11 23 mph 1009.5mb 48f 44f
11:12 15 24 mph 1009.5mb 48f 44f
11:06 17 24 mph 1009.4mb 48f 44f
11:00 9 16 mph 1009.5mb 48f 44f
10:54 10 22 mph 1009.5mb 48f 43f
10:48 10 18 mph 1009.5mb 48f 44f
10:42 14 18 mph 1009.4mb 48f 43f
10:36 8 16 mph 1009.5mb 48f 43f
10:30 11 18 mph 1009.4mb 48f 43f
10:24 8 14 mph 1009.5mb 48f 43f
10:18 8 13 mph 1009.4mb 48f 43f
10:12 10 16 mph 1009.4mb 48f 43f
10:06 16 22 mph 1009.3mb 47f 43f
10:00 14 20 mph 1009.3mb 47f 43f
9:54 10 21 mph 1009.4mb 47f 43f
9:48 14 22 mph 1009.3mb 47f 42f
9:42 14 21 mph 1009.3mb 47f 42f
9:36 11 20 mph 1009.3mb 47f 42f
9:30 13 18 mph 1009.3mb 47f 42f
9:24 13 18 mph 1009.1mb 47f 42f
9:18 14 20 mph 1009mb 46f 41f
9:12 15 21 mph 1008.9mb 46f 41f
9:06 10 20 mph 1009mb 46f 41f
9:00 15 22 mph 1009mb 46f 41f
8:54 14 20 mph 1009mb 46f 41f
8:48 11 17 mph 1008.9mb 46f 41f
8:42 10 20 mph 1008.8mb 46f 40f
8:36 13 16 mph 1008.8mb 46f 40f
8:30 9 18 mph 1008.8mb 46f 40f
8:24 11 16 mph 1008.6mb 46f 40f
8:18 9 17 mph 1008.6mb 46f 39f
8:12 11 15 mph 1008.6mb 46f 39f
8:06 9 16 mph 1008.6mb 47f 39f
8:00 9 15 mph 1008.4mb 47f 38f
7:48 9 14 mph 1008.2mb 47f 38f
7:42 9 17 mph 1008.1mb 47f 38f
7:36 10 13 mph 1008.1mb 47f 38f
7:30 7 13 mph 1008.1mb 47f 38f
7:24 11 15 mph 1008mb 47f 38f
7:18 8 14 mph 1007.8mb 47f 37f
7:12 8 13 mph 1007.7mb 47f 37f
7:06 9 15 mph 1007.8mb 47f 37f
7:00 7 11 mph 1007.8mb 47f 37f
6:54 7 13 mph 1007.8mb 47f 37f
6:48 8 14 mph 1007.7mb 47f 37f
6:42 8 13 mph 1007.7mb 47f 37f
6:36 7 13 mph 1007.6mb 48f 37f
6:30 7 11 mph 1007.6mb 48f 38f
6:24 7 10 mph 1007.6mb 48f 38f
6:18 8 13 mph 1007.5mb 48f 38f
6:12 8 13 mph 1007.3mb 48f 38f
6:06 10 14 mph 1007.1mb 48f 38f
6:00 7 10 mph 1007.1mb 48f 38f
5:54 5 13 mph 1007mb 48f 38f
5:48 5 7 mph 1007mb 48f 38f
5:42 6 13 mph 1006.9mb 48f 38f
5:36 5 14 mph 1006.8mb 48f 38f
5:30 7 13 mph 1006.7mb 48f 38f
5:24 7 14 mph 1006.6mb 48f 38f
5:18 5 11 mph 1006.5mb 48f 38f
5:12 5 14 mph 1006.4mb 48f 38f
5:06 8 11 mph 1006.3mb 48f 38f
5:00 7 11 mph 1006.2mb 48f 38f
4:54 7 10 mph 1006.2mb 48f 38f
4:48 6 10 mph 1006.2mb 48f 38f
4:42 6 10 mph 1006.1mb 48f 38f
4:36 5 11 mph 1006.1mb 48f 38f
4:30 5 7 mph 1006.2mb 48f 38f
4:24 5 8 mph 1006.1mb 48f 38f
4:18 8 11 mph 1006.1mb 48f 38f
4:12 8 13 mph 1006mb 48f 38f
4:06 11 16 mph 1006mb 48f 38f
4:00 8 13 mph 1006.1mb 48f 37f
3:54 10 15 mph 1006mb 48f 37f
3:48 8 11 mph 1005.9mb 48f 37f
3:42 7 10 mph 1006mb 48f 37f
3:36 6 10 mph 1006mb 48f 37f
3:30 7 10 mph 1006mb 48f 37f
3:24 7 11 mph 1006.1mb 48f 37f
3:18 6 10 mph 1006.2mb 48f 37f
3:12 7 10 mph 1006.2mb 48f 37f
3:06 8 14 mph 1006.2mb 48f 37f
3:00 8 15 mph 1006.2mb 48f 37f
2:54 7 13 mph 1006.2mb 48f 38f
2:48 8 13 mph 1006.2mb 48f 38f
2:42 7 13 mph 1006.2mb 48f 38f
2:36 7 15 mph 1006.2mb 48f 38f
2:30 6 14 mph 1006.2mb 48f 38f
2:24 7 9 mph 1006.2mb 48f 38f
2:18 8 14 mph 1006.1mb 48f 38f
2:12 8 13 mph 1006.1mb 48f 38f
2:06 5 8 mph 1006.2mb 49f 38f
2:00 5 10 mph 1006.1mb 49f 38f
1:54 6 10 mph 1006.1mb 49f 38f
1:48 3 8 mph 1006mb 49f 38f
1:42 6 11 mph 1006.1mb 49f 38f
1:36 7 10 mph 1006mb 49f 38f
1:30 7 10 mph 1005.9mb 49f 38f
1:24 7 11 mph 1005.9mb 49f 38f
1:18 6 13 mph 1005.8mb 49f 38f
1:12 6 9 mph 1005.7mb 49f 38f
1:06 8 13 mph 1005.5mb 49f 38f
1:00 8 14 mph 1005.5mb 49f 38f
12:54 7 10 mph 1005.6mb 49f 39f
12:48 5 7 mph 1005.6mb 49f 39f
12:42 5 10 mph 1005.6mb 49f 39f
12:36 7 11 mph 1005.4mb 49f 39f
12:30 6 9 mph 1005.4mb 49f 39f
12:24 7 10 mph 1005.4mb 49f 40f
12:18 8 14 mph 1005.3mb 49f 40f
12:12 8 14 mph 1005.2mb 49f 40f
12:06 7 14 mph 1005.3mb 49f 40f
12:00 7 11 mph 1005.2mb 49f 40f
Sex 12/02 11:54 10 14 mph 1005.2mb 49f 40f
11:48 7 11 mph 1005.2mb 49f 40f
11:42 9 13 mph 1005.2mb 49f 40f
11:36 8 13 mph 1005.2mb 49f 41f
11:30 6 10 mph 1005.2mb 49f 41f
11:24 7 13 mph 1005.2mb 49f 41f
11:18 7 13 mph 1005.2mb 49f 41f
11:12 7 13 mph 1005.1mb 49f 41f
11:06 9 13 mph 1005mb 49f 41f
11:00 9 15 mph 1005.1mb 49f 41f
10:54 8 11 mph 1005.1mb 49f 41f
10:48 9 14 mph 1005mb 49f 42f
10:42 7 10 mph 1005.1mb 48f 42f
10:36 7 13 mph 1005mb 48f 42f
10:30 8 14 mph 1004.9mb 48f 42f
10:24 9 15 mph 1004.8mb 48f 42f
10:18 10 16 mph 1004.8mb 48f 42f
10:12 11 16 mph 1004.8mb 48f 42f
10:06 6 13 mph 1004.8mb 48f 42f
10:00 6 10 mph 1004.8mb 48f 42f
9:54 5 7 mph 1004.7mb 48f 42f
9:48 5 7 mph 1004.5mb 48f 42f
9:42 5 7 mph 1004.5mb 48f 42f
9:36 6 8 mph 1004.6mb 48f 42f
9:30 6 10 mph 1004.6mb 48f 42f
9:24 5 8 mph 1004.6mb 48f 42f
9:18 6 11 mph 1004.5mb 48f 42f
9:12 7 11 mph 1004.5mb 48f 42f
9:06 7 10 mph 1004.5mb 48f 42f
9:00 8 11 mph 1004.5mb 48f 42f
8:54 5 8 mph 1004.6mb 48f 42f
8:48 5 7 mph 1004.6mb 48f 42f
8:42 6 9 mph 1004.7mb 48f 42f
8:36 6 10 mph 1004.7mb 48f 41f
8:30 5 9 mph 1004.7mb 48f 41f
8:24 5 9 mph 1004.8mb 48f 41f
8:18 6 9 mph 1004.8mb 48f 41f
8:12 6 8 mph 1004.8mb 48f 41f
8:06 6 9 mph 1005mb 48f 41f
8:00 7 10 mph 1005mb 48f 42f
7:54 7 9 mph 1005mb 48f 42f
7:48 8 9 mph 1005.1mb 48f 42f
7:42 7
mph
1005.1mb 48f 42f
7:36 3 5 mph 1005.2mb 48f 42f
7:30 2 3 mph 1005.2mb 48f 43f
7:24 3 5 mph 1005.2mb 48f 43f
7:18 3 6 mph 1005.2mb 48f 43f
7:12 3 6 mph 1005.2mb 48f 43f
7:06 3 7 mph 1005.1mb 48f 43f
7:00 5 7 mph 1005.2mb 48f 43f
6:30 7 11 mph 1005.2mb 48f 44f
6:24 8 13 mph 1005.2mb 48f 44f
6:18 9 14 mph 1005.2mb 48f 45f
6:12 7 11 mph 1005.1mb 48f 45f
6:06 10 15 mph 1005.1mb 48f 45f
6:00 9 15 mph 1005.1mb 48f 45f
5:54 7 11 mph 1005.1mb 48f 45f
5:48 7 10 mph 1005.1mb 48f 45f
4:54 6 8 mph 1005.3mb 48f 47f
4:48 7 11 mph 1005.2mb 48f 47f
4:18 5 10 mph 1005mb 48f 47f
4:12 6 10 mph 1005mb 48f 48f
4:06 6 11 mph 1005mb 48f 48f
4:00 7 14 mph 1004.9mb 49f 48f
3:54 7 11 mph 1004.9mb 49f 48f
3:48 6 8 mph 1004.8mb 49f 48f
3:42 5 7 mph 1004.8mb 49f 48f
3:36 5 8 mph 1004.8mb 49f 49f
3:30 5 11 mph 1004.8mb 49f 49f
3:24 6 8 mph 1004.7mb 49f 49f
3:18 6 7 mph 1004.7mb 49f 49f
3:12 5 11 mph 1004.8mb 49f 49f
3:06 8 14 mph 1004.8mb 49f 50f
3:00 7 11 mph 1004.8mb 49f 51f
2:54 10 15 mph 1004.8mb 49f 51f
2:48 9 14 mph 1004.7mb 49f 51f
2:42 10 17 mph 1004.7mb 49f 51f
2:36 10 17 mph 1004.7mb 49f 50f
2:30 11 18 mph 1004.7mb 49f 50f
2:24 9 16 mph 1004.7mb 49f 51f
2:18 8 15 mph 1004.6mb 49f 51f
2:12 8 16 mph 1004.6mb 49f 51f
2:06 9 14 mph 1004.6mb 49f 51f
2:00 8 15 mph 1004.5mb 49f 51f
1:54 7 14 mph 1004.5mb 49f 52f
1:48 11 18 mph 1004.5mb 49f 51f
1:42 11 16 mph 1004.5mb 49f 51f
1:36 10 16 mph 1004.5mb 49f 51f
1:30 11 20 mph 1004.4mb 49f 51f
1:24 10 21 mph 1004.5mb 49f 51f
1:18 14 18 mph 1004.6mb 49f 50f
1:12 10 15 mph 1004.6mb 49f 50f
1:06 9 17 mph 1004.7mb 49f 50f
1:00 10 14 mph 1004.7mb 49f 50f
12:54 9 15 mph 1004.7mb 49f 50f
12:48 9 13 mph 1004.7mb 49f 50f
12:42 9 16 mph 1004.8mb 49f 49f
12:36 10 20 mph 1004.9mb 49f 49f
12:30 11 20 mph 1004.9mb 49f 49f
12:24 13 18 mph 1004.9mb 49f 50f
12:18 13 22 mph 1005mb 49f 49f
12:12 15 20 mph 1004.9mb 49f 49f
12:06 11 17 mph 1005mb 49f 48f
12:00 11 20 mph 1005.1mb 49f 48f
11:54 10 17 mph 1005.2mb 49f 48f
11:48 15 22 mph 1005.2mb 49f 48f
11:42 14 22 mph 1005.3mb 49f 48f
11:36 15 21 mph 1005.4mb 49f 48f
11:30 10 18 mph 1005.4mb 49f 49f
11:24 13 18 mph 1005.5mb 49f 48f
11:18 8 15 mph 1005.5mb 49f 48f
11:12 10 18 mph 1005.6mb 49f 48f
11:06 11 21 mph 1005.6mb 49f 48f
11:00 13 21 mph 1005.6mb 49f 47f
10:54 10 22 mph 1005.7mb 49f 47f
10:48 11 18 mph 1005.7mb 49f 47f
10:42 11 18 mph 1005.7mb 49f 47f
10:36 8 14 mph 1005.8mb 49f 47f
10:30 9 21 mph 1005.9mb 49f 47f
10:24 14 21 mph 1006mb 49f 46f
10:18 7 14 mph 1006.1mb 48f 46f
10:12 9 15 mph 1006.2mb 48f 46f
10:06 9 15 mph 1006.3mb 48f 46f
10:00 11 15 mph 1006.3mb 48f 45f
9:54 9 14 mph 1006.4mb 48f 45f
9:48 7 15 mph 1006.4mb 48f 45f
9:42 9 15 mph 1006.5mb 48f 44f
9:36 13 17 mph 1006.5mb 48f 44f
9:30 9 14 mph 1006.6mb 48f 44f
9:24 8 13 mph 1006.6mb 48f 43f
9:18 9 13 mph 1006.6mb 47f 43f
9:12 9 14 mph 1006.6mb 47f 43f
9:06 8 14 mph 1006.5mb 47f 42f
9:00 8 13 mph 1006.5mb 47f 42f
8:54 11 16 mph 1006.4mb 47f 42f
8:48 9 15 mph 1006.3mb 47f 42f
8:42 8 15 mph 1006.4mb 47f 41f
8:36 10 14 mph 1006.3mb 47f 41f
8:30 8 13 mph 1006.4mb 47f 41f
8:24 6 8 mph 1006.4mb 47f 40f
8:18 6 9 mph 1006.5mb 47f 40f
8:12 6 11 mph 1006.5mb 47f 40f
8:06 3 7 mph 1006.4mb 47f 39f
8:00 2 6 mph 1006.5mb 47f 39f
7:54 2 5 mph 1006.4mb 47f 38f
7:48 3 6 mph 1006.4mb 47f 39f
7:42 3 6 mph 1006.5mb 47f 38f
7:36 3 8 mph 1006.4mb 47f 38f
7:30 5 6 mph 1006.3mb 47f 38f
7:24 5 7 mph 1006.3mb 47f 38f
7:18 5 8 mph 1006.2mb 47f 38f
7:12 5 6 mph 1006.3mb 47f 37f
7:06 3 7 mph 1006.2mb 47f 37f
7:00 3 7 mph 1006.2mb 47f 37f
6:54 5 6 mph 1006.2mb 47f 37f
6:48 5 6 mph 1006.1mb 47f 37f
6:42 5 7 mph 1006mb 47f 37f
6:36 2 6 mph 1006mb 47f 37f
6:30 2 5 mph 1006mb 47f 37f
6:24 2 3 mph 1006mb 47f 37f
6:18 2 5 mph 1006mb 47f 37f
6:12 2 5 mph 1006mb 47f 37f
6:06 3 6 mph 1005.9mb 47f 37f
6:00 5
mph
1005.9mb 47f 37f
5:54 3 5 mph 1005.9mb 47f 37f
5:48 2 5 mph 1005.9mb 47f 38f
5:42 3 6 mph 1005.9mb 47f 38f
5:36 5 7 mph 1005.8mb 47f 38f
5:30 5 6 mph 1005.8mb 48f 37f
5:24 5 6 mph 1005.8mb 48f 37f
5:18 3 6 mph 1005.6mb 48f 37f
5:12 6 7 mph 1005.6mb 48f 37f
5:06 7 8 mph 1005.4mb 48f 37f
5:00 7 8 mph 1005.3mb 48f 37f
4:54 6 7 mph 1005.2mb 48f 37f
4:48 5 6 mph 1005.1mb 48f 37f
4:42 2 5 mph 1005mb 48f 38f
4:36 5 7 mph 1004.9mb 48f 38f
4:30 5 8 mph 1004.8mb 48f 38f
4:24 5 8 mph 1004.7mb 48f 38f
4:18 6 8 mph 1004.6mb 48f 38f
4:12 6 10 mph 1004.5mb 48f 38f
4:06 7 10 mph 1004.5mb 48f 38f
4:00 6 10 mph 1004.6mb 48f 38f
3:54 7 9 mph 1004.7mb 48f 38f
3:48 7 9 mph 1004.7mb 48f 38f
3:42 7 9 mph 1004.7mb 48f 39f
3:36 6 9 mph 1004.7mb 48f 39f
3:30 5 8 mph 1004.6mb 48f 39f
3:24 5 8 mph 1004.6mb 48f 39f
3:18 6 9 mph 1004.6mb 48f 39f
3:12 5 7 mph 1004.6mb 48f 39f
3:06 5 7 mph 1004.5mb 48f 39f
3:00 5 6 mph 1004.6mb 48f 40f
2:54 3 7 mph 1004.6mb 48f 40f
2:48 5 7 mph 1004.4mb 48f 40f
2:42 6 9 mph 1004.3mb 48f 40f
2:36 6 9 mph 1004.3mb 48f 40f
2:30 7 10 mph 1004.4mb 48f 40f
2:24 6 9 mph 1004.5mb 48f 40f
2:18 6 9 mph 1004.4mb 48f 40f
2:12 7 8 mph 1004.5mb 48f 41f
2:06 3 8 mph 1004.5mb 48f 41f
2:00 3 5 mph 1004.4mb 48f 41f
1:54 3 8 mph 1004.2mb 48f 41f
1:48 3 7 mph 1004.2mb 48f 41f
1:42 6 9 mph 1004.1mb 48f 41f
1:36 6 7 mph 1004.1mb 48f 41f
1:30 2 5 mph 1004mb 48f 41f
1:24 3 6 mph 1003.9mb 48f 41f
1:18 5 7 mph 1003.9mb 48f 41f
1:12 5 8 mph 1003.8mb 48f 41f
1:06 5 7 mph 1003.7mb 48f 41f
1:00 3 7 mph 1003.6mb 48f 41f
12:54 5 9 mph 1003.7mb 49f 42f
12:48 7 10 mph 1003.6mb 49f 42f
12:42 7 10 mph 1003.5mb 49f 42f
12:36 6 11 mph 1003.4mb 49f 42f
12:30 7 13 mph 1003.3mb 49f 42f
12:24 6 10 mph 1003.2mb 49f 42f
12:18 5 9 mph 1003.2mb 49f 42f
12:12 5 9 mph 1003.1mb 49f 42f
12:06 7 11 mph 1003mb 49f 42f
12:00 5 11 mph 1002.9mb 49f 42f
Qui 12/01 11:54 6 9 mph 1002.9mb 49f 42f
11:48 5 10 mph 1002.8mb 49f 42f
11:42 5 7 mph 1002.8mb 49f 42f
11:36 2 8 mph 1002.8mb 49f 43f
11:30 6 10 mph 1002.8mb 49f 43f
11:24 6 13 mph 1002.7mb 49f 43f
11:18 7 15 mph 1002.6mb 49f 43f
11:12 7 10 mph 1002.7mb 49f 43f
11:06 6 10 mph 1002.8mb 49f 42f
11:00 7 8 mph 1002.8mb 49f 43f
10:54 3 7 mph 1002.8mb 49f 42f
10:48 6 10 mph 1002.6mb 49f 42f
10:42 6 9 mph 1002.5mb 49f 42f
10:36 6 10 mph 1002.5mb 49f 42f
10:30 7 11 mph 1002.3mb 49f 42f
10:24 6 9 mph 1002.3mb 49f 41f
10:18 5 9 mph 1002.3mb 49f 41f
10:12 6 8 mph 1002.3mb 49f 42f
10:06 6 7 mph 1002.2mb 49f 42f
10:00 6 8 mph 1002.1mb 49f 42f
9:54 5 7 mph 1001.9mb 49f 42f
9:48 5 7 mph 1001.9mb 48f 42f
9:30 6 9 mph 1001.7mb 48f 42f
9:24 6 9 mph 1001.7mb 48f 42f
9:18 6 8 mph 1001.6mb 49f 43f
9:12 6 9 mph 1001.5mb 49f 43f
9:06 6 8 mph 1001.5mb 49f 43f
9:00 7 9 mph 1001.4mb 49f 43f
8:54 7 10 mph 1001.4mb 48f 44f
8:48 6 10 mph 1001.4mb 48f 44f
8:30 7 9 mph 1001.1mb 48f 44f
8:24 7 10 mph 1001.1mb 48f 44f
8:18 8 10 mph 1001.1mb 48f 44f
8:12 8 11 mph 1001mb 48f 44f
8:06 6 9 mph 1000.9mb 48f 44f
8:00 6 8 mph 1001.1mb 48f 44f
7:54 5 7 mph 1001mb 48f 44f
7:48 7 11 mph 1000.9mb 48f 45f
7:42 7 10 mph 1000.9mb 48f 45f
7:36 8 9 mph 1000.8mb 48f 45f
7:30 8 13 mph 1000.8mb 48f 45f
7:24 9 14 mph 1000.7mb 48f 45f
7:18 9 13 mph 1000.6mb 48f 45f
7:12 8 14 mph 1000.6mb 48f 46f
7:06 8 14 mph 1000.6mb 48f 46f
7:00 10 17 mph 1000.5mb 48f 46f
6:54 9 14 mph 1000.4mb 48f 46f
6:48 10 14 mph 1000.4mb 48f 46f
6:42 7 18 mph 1000.3mb 48f 46f
6:36 13 16 mph 1000.2mb 48f 47f
6:30 10 17 mph 1000.2mb 48f 47f
6:24 10 16 mph 1000.2mb 48f 47f
6:18 9 15 mph 1000.1mb 48f 47f
6:12 10 16 mph 1000.1mb 48f 47f
6:06 10 16 mph 1000mb 48f 47f
6:00 8 14 mph 1000mb 48f 47f
5:54 6 14 mph 1000mb 48f 47f
5:48 9 14 mph 999.9mb 48f 47f
5:42 9 14 mph 999.9mb 48f 47f
5:36 8 13 mph 999.9mb 48f 47f
5:30 7 14 mph 999.9mb 48f 47f
5:24 7 10 mph 999.8mb 48f 47f
5:18 6 14 mph 999.8mb 48f 47f
5:12 6 13 mph 999.8mb 48f 48f
5:06 7 9 mph 999.7mb 48f 48f
5:00 8 10 mph 999.6mb 48f 48f
4:54 7 10 mph 999.5mb 48f 48f
4:48 8 14 mph 999.4mb 48f 49f
4:42 10 17 mph 999.4mb 48f 49f
4:36 9 15 mph 999.3mb 48f 49f
4:30 10 15 mph 999.2mb 48f 49f
4:24 9 16 mph 999.1mb 48f 49f
4:18 9 15 mph 999mb 48f 49f
4:12 9 16 mph 998.9mb 48f 50f
4:06 9 21 mph 998.8mb 49f 50f
4:00 15 22 mph 998.7mb 49f 50f
3:54 11 18 mph 998.5mb 49f 51f
3:48 14 21 mph 998.4mb 49f 51f
3:42 15 25 mph 998.3mb 49f 51f
3:36 17 25 mph 998.3mb 49f 51f
3:30 13 22 mph 998.1mb 49f 51f
3:24 14 22 mph 998.1mb 49f 52f
3:18 17 22 mph 997.9mb 49f 52f
3:12 15 20 mph 997.9mb 49f 52f
3:06 10 16 mph 997.8mb 49f 53f
3:00 8 14 mph 997.8mb 49f 53f
2:54 5 10 mph 997.6mb 49f 54f
2:48 8 14 mph 997.5mb 49f 54f
2:42 9 14 mph 997.4mb 49f 54f
2:36 6 10 mph 997.3mb 49f 54f
2:30 7 10 mph 997.2mb 49f 54f
2:24 6 11 mph 997.1mb 49f 54f
2:18 7 13 mph 997mb 49f 54f
2:12 8 15 mph 996.8mb 49f 54f
2:06 8 15 mph 996.8mb 49f 54f
2:00 7 14 mph 996.8mb 49f 54f
1:54 10 17 mph 996.8mb 49f 54f
1:48 10 16 mph 996.7mb 49f 54f
12:54 8 14 mph 996.7mb 49f 53f
12:48 5 8 mph 996.8mb 49f 53f
12:30 6 9 mph 996.8mb 49f 53f
12:24 7 11 mph 996.9mb 49f 53f
12:18 9 13 mph 996.8mb 49f 53f
12:12 7 15 mph 996.9mb 49f 53f
12:06 10 15 mph 996.8mb 49f 52f
12:00 9 16 mph 996.8mb 49f 52f
11:54 10 13 mph 996.7mb 49f 51f
11:48 8 11 mph 996.8mb 49f 51f
11:42 7 13 mph 996.8mb 49f 51f
11:36 6 13 mph 996.8mb 49f 50f
11:30 7 11 mph 996.7mb 49f 50f
11:24 8 14 mph 996.8mb 49f 49f
11:18 11 15 mph 996.9mb 49f 49f
11:12 11 17 mph 996.9mb 49f 48f
11:06 13 17 mph 996.8mb 49f 48f
11:00 13 20 mph 996.8mb 49f 47f
10:54 9 17 mph 996.8mb 49f 47f
10:48 15 22 mph 996.8mb 49f 47f
10:42 14 18 mph 996.9mb 49f 47f
10:36 9 15 mph 997mb 49f 47f
10:30 10 15 mph 997mb 49f 47f
10:24 9 14 mph 996.9mb 49f 46f
10:18 8 16 mph 997mb 49f 46f
10:12 8 14 mph 997.1mb 49f 46f
10:06 9 13 mph 997mb 49f 46f
10:00 8 14 mph 997mb 49f 46f
9:54 9 16 mph 996.8mb 49f 46f
9:48 14 17 mph 996.7mb 48f 46f
9:42 13 23 mph 996.6mb 48f 46f
9:36 10 17 mph 996.4mb 48f 46f
9:30 11 16 mph 996.3mb 48f 45f
9:24 16 22 mph 996.2mb 48f 45f
9:18 14 18 mph 996mb 48f 45f
9:12 14 21 mph 995.9mb 48f 45f
9:06 14 21 mph 995.7mb 48f 45f
9:00 13 20 mph 995.7mb 48f 44f
8:54 13 17 mph 995.5mb 48f 44f
8:48 14 17 mph 995.5mb 48f 44f
8:42 14 18 mph 995.5mb 48f 45f
8:36 14 21 mph 995.6mb 48f 45f
8:30 14 20 mph 995.4mb 48f 44f
8:24 13 20 mph 995.2mb 48f 45f
8:18 15 22 mph 994.8mb 48f 45f
8:12 13 25 mph 994.5mb 47f 46f
8:06 14 20 mph 994.7mb 47f 48f
8:00 16 20 mph 994.7mb 47f 48f
7:54 13 20 mph 995mb 47f 48f
7:48 14 18 mph 995mb 47f 48f
7:42 15 21 mph 994.9mb 46f 48f
7:36 11 17 mph 994.6mb 46f 48f
7:30 14 18 mph 994.2mb 46f 48f
7:24 16 21 mph 993.9mb 46f 49f
7:18 14 20 mph 994.1mb 46f 49f
7:12 11 16 mph 994.4mb 46f 49f
7:06 14 20 mph 993.8mb 46f 49f
7:00 11 15 mph 994.1mb 46f 49f
6:54 10 14 mph 994.7mb 46f 49f
6:48 9 11 mph 994.8mb 46f 49f
6:42 9 15 mph 994.6mb 46f 49f
6:36 14 16 mph 993.9mb 46f 49f
6:30 13 15 mph 994.6mb 46f 49f
6:24 10 13 mph 995.1mb 46f 49f
6:18 11 14 mph 995.5mb 46f 49f
6:12 10 14 mph 995.6mb 46f 49f
6:06 10 14 mph 995.8mb 46f 49f
6:00 13 15 mph 995.9mb 46f 49f
5:54 11 16 mph 996.2mb 46f 49f
5:48 14 18 mph 996.4mb 47f 49f
5:42 15 20 mph 996.4mb 47f 49f
5:36 16 20 mph 996.5mb 47f 49f
5:30 16 21 mph 996.6mb 47f 49f
5:24 18 24 mph 996.8mb 47f 49f
5:18 16 22 mph 997.2mb 47f 49f
5:12 18 25 mph 997.3mb 47f 49f
5:06 16 24 mph 997.4mb 47f 49f
5:00 21 25 mph 997.7mb 47f 49f
4:54 22 26 mph 997.8mb 47f 49f
4:48 21 25 mph 998.1mb 47f 49f
4:42 21 26 mph 998.2mb 47f 48f
4:36 20 26 mph 998.4mb 47f 48f
4:30 20 26 mph 998.6mb 47f 48f
4:24 20 28 mph 999mb 47f 48f
4:18 18 28 mph 999.5mb 47f 48f
4:12 18 24 mph 999.6mb 47f 48f
4:06 16 23 mph 1000mb 47f 48f
4:00 20 26 mph 1000.2mb 47f 48f
3:54 18 26 mph 1000.4mb 47f 48f
3:48 22 28 mph 1000.6mb 47f 48f
3:42 22 28 mph 1000.7mb 47f 48f
3:36 20 25 mph 1001.1mb 47f 48f
3:30 22 26 mph 1001mb 47f 48f
3:24 21 25 mph 1001.4mb 47f 48f
3:18 22 24 mph 1001.8mb 47f 48f
3:12 17 23 mph 1002.3mb 47f 48f
3:06 18 23 mph 1002.8mb 47f 48f
3:00 17 23 mph 1003.4mb 47f 48f
2:54 17 22 mph 1004mb 47f 48f
2:48 16 21 mph 1004.4mb 47f 48f
2:42 16 22 mph 1004.6mb 47f 49f
2:36 16 20 mph 1004.8mb 47f 49f
2:30 14 17 mph 1004.8mb 47f 49f
2:24 10 11 mph 1005.6mb 47f 48f
2:18 10 14 mph 1005.9mb 47f 48f
2:12 11 14 mph 1005.8mb 47f 48f
2:06 10 14 mph 1006.6mb 47f 48f
2:00 9 13 mph 1006.7mb 47f 48f
1:54 6 9 mph 1006.7mb 47f 43f
1:48 5 11 mph 1007mb 47f 46f
1:42 8 10 mph 1007.2mb 47f 48f
1:36 8 10 mph 1007.5mb 47f 48f
1:30 9 13 mph 1007.5mb 47f 48f
1:24 10 13 mph 1007.7mb 47f 48f
1:18 9 14 mph 1007.9mb 47f 48f
1:12 10 14 mph 1008.2mb 47f 48f
1:06 11 14 mph 1007.8mb 47f 48f
1:00 13 17 mph 1007.3mb 48f 48f
12:54 11 16 mph 1007.5mb 48f 48f
12:48 11 17 mph 1007.6mb 48f -
12:42 16 21 mph 1007.7mb 48f -
12:36 15 20 mph 1007.7mb 48f -
12:30 16 21 mph 1007.9mb 48f 48f
12:24 17 23 mph 1008.1mb 48f 48f
12:18 16 21 mph 1007.8mb 48f 47f
12:12 15 20 mph 1007.9mb 48f 47f
12:06 15 21 mph 1008.6mb 48f 47f
12:00 16 20 mph 1008.8mb 48f 47f
Qua 11/30 11:54 16 20 mph 1008.9mb 47f 47f
11:48 16 21 mph 1008.9mb 47f 47f
11:42 16 21 mph 1008.9mb 47f 47f
11:36 16 21 mph 1009.3mb 47f 47f
11:30 16 21 mph 1009.6mb 47f 47f
11:24 16 20 mph 1009.9mb 47f 47f
11:18 17 21 mph 1010.2mb 47f 47f
11:12 16 22 mph 1010.5mb 48f 47f
11:06 16 18 mph 1010.7mb 48f 47f
11:00 16 21 mph 1010.8mb 47f 47f
10:54 16 21 mph 1011mb 47f 47f
10:48 15 20 mph 1011.2mb 47f 47f
10:42 16 20 mph 1011.3mb 47f 47f
10:36 16 20 mph 1011.6mb 47f 47f
10:30 17 21 mph 1011.6mb 47f 47f
10:24 17 21 mph 1011.8mb 47f 47f
10:18 15 21 mph 1012.1mb 47f 47f
10:12 15 21 mph 1012.3mb 47f 47f
10:06 17 22 mph 1012.4mb 47f 47f
10:00 16 22 mph 1012.7mb 47f 47f
9:54 16 20 mph 1012.9mb 47f 47f
9:48 15 22 mph 1013.2mb 47f 47f
9:42 15 22 mph 1013mb 47f 47f
9:36 17 22 mph 1012.8mb 47f 47f
9:30 14 21 mph 1012.8mb 47f 47f
9:24 15 20 mph 1013mb 47f 47f
9:18 16 21 mph 1013.1mb 47f 47f
9:12 14 18 mph 1013.4mb 47f 47f
9:06 15 20 mph 1013.4mb 47f 47f
9:00 16 22 mph 1013.5mb 47f 47f
8:54 17 21 mph 1013.6mb 47f 47f
8:48 17 20 mph 1014mb 47f 46f
8:42 15 23 mph 1014mb 47f 46f
8:36 17 22 mph 1013.8mb 47f 46f
8:30 16 21 mph 1014mb 47f 46f
8:24 17 22 mph 1014.2mb 46f 46f
8:18 20 23 mph 1014.2mb 46f 46f
8:12 15 22 mph 1014.2mb 46f 46f
8:06 18 22 mph 1014.2mb 46f 46f
8:00 17 23 mph 1014.3mb 46f 46f
7:54 18 22 mph 1014.5mb 46f 46f
7:48 16 21 mph 1014.7mb 46f 46f
7:42 15 20 mph 1014.8mb 46f 46f
7:36 15 22 mph 1015mb 46f 46f
7:30 14 23 mph 1014.9mb 46f 46f
7:24 20 24 mph 1015mb 46f 46f
7:18 16 23 mph 1015mb 46f 46f
7:12 17 23 mph 1015.1mb 46f 46f
7:06 20 24 mph 1015.2mb 46f 45f
7:00 20 23 mph 1015.4mb 46f 46f
6:54 17 21 mph 1015.7mb 46f 46f
6:48 17 21 mph 1015.9mb 46f 46f
6:42 13 16 mph 1016.2mb 46f 45f
6:36 13 18 mph 1016.1mb 46f 45f
6:00 10 15 mph 1015.3mb 47f 44f
5:54 10 17 mph 1015.3mb 47f 44f
5:48 8 11 mph 1015.4mb 47f 43f
5:42 7 8 mph 1015.5mb 47f 42f
5:36 6 10 mph 1015.6mb 47f 41f
5:30 8 10 mph 1015.7mb 47f 41f
5:24 7 9 mph 1015.9mb 47f 41f
5:18 7 8 mph 1016.2mb 47f 41f
5:12 6 8 mph 1016.4mb 47f 41f
5:06 6 8 mph 1016.4mb 47f 41f
5:00 7 8 mph 1016.4mb 47f 41f
4:54 6 8 mph 1016.4mb 47f 42f
4:48 7 8 mph 1016.5mb 47f 42f
4:42 6 8 mph 1016.5mb 47f 42f
4:36 7 10 mph 1016.7mb 47f 42f
4:30 7 9 mph 1016.8mb 47f 42f
4:24 7 9 mph 1016.6mb 47f 42f
4:18 6 8 mph 1016.5mb 47f 43f
4:12 6 7 mph 1016.6mb 47f 43f
4:06 6 7 mph 1016.6mb 47f 43f
4:00 6 8 mph 1016.5mb 47f 43f
3:54 7 9 mph 1016.5mb 47f 43f
3:48 7 9 mph 1016.6mb 47f 43f
3:42 6 8 mph 1016.6mb 47f 43f
3:36 7 10 mph 1016.6mb 47f 43f
3:30 8 9 mph 1016.5mb 47f 43f
3:24 7 9 mph 1016.5mb 47f 43f
3:18 7 9 mph 1016.5mb 47f 44f
3:12 8 11 mph 1016.4mb 47f 44f
3:06 8 11 mph 1016.3mb 47f 44f
3:00 8 10 mph 1016.2mb 47f 44f
2:54 9 11 mph 1016.2mb 47f 44f
2:48 8 11 mph 1016mb 47f 44f
2:42 9 11 mph 1016mb 47f 44f
2:36 9 11 mph 1016mb 47f 44f
2:30 10 13 mph 1016mb 47f 44f
2:24 8 15 mph 1016.1mb 47f 44f
2:18 11 16 mph 1015.9mb 47f 44f
2:12 8 14 mph 1015.9mb 47f 44f
2:06 11 15 mph 1015.8mb 47f 44f
2:00 13 14 mph 1015.8mb 47f 44f
1:54 11 13 mph 1015.7mb 47f 44f
1:48 10 11 mph 1015.7mb 47f 44f
1:42 6 10 mph 1015.6mb 47f 43f
1:36 7 10 mph 1015.6mb 47f 43f
1:30 8 11 mph 1015.5mb 47f 43f
1:24 9 13 mph 1015.5mb 47f 43f
1:18 7 9 mph 1015.7mb 47f 43f
1:12 8 10 mph 1015.8mb 47f 43f
1:06 7 9 mph 1015.9mb 47f 43f
1:00 7 9 mph 1016.1mb 47f 43f
12:54 9 10 mph 1016.2mb 47f 43f
12:48 8 9 mph 1016.2mb 47f 43f
12:42 7 8 mph 1016.3mb 47f 43f
12:36 6 9 mph 1016.4mb 47f 43f
12:30 6 8 mph 1016.5mb 47f 43f
12:24 6 7 mph 1016.6mb 47f 43f
12:18 5 6 mph 1016.8mb 47f 43f
12:12 2 3 mph 1016.7mb 47f 43f
12:06  -  1 mph 1017mb 47f 43f
12:00  -  mph 1017.1mb 47f 43f
11:54  -  1 mph 1017.1mb 47f 43f
11:48  -  2 mph 1017.1mb 47f 42f
11:42 2 3 mph 1017mb 47f 42f
11:36 1 2 mph 1017mb 47f 42f
11:30 3 6 mph 1016.6mb 47f 42f
11:24 6
mph
1016.3mb 47f 42f
11:18 6 7 mph 1016.1mb 47f 42f
11:12 6 7 mph 1016.1mb 47f 42f
11:06 3 5 mph 1016.1mb 47f 42f
11:00 3 6 mph 1016.1mb 47f 42f
10:54 3 6 mph 1016mb 47f 42f
10:48 3 5 mph 1016.1mb 47f 42f
10:42 2 5 mph 1016.1mb 47f 42f
10:36 3 5 mph 1016.4mb 47f 42f
10:30 2 3 mph 1016.4mb 47f 42f
10:24 3 6 mph 1016.4mb 47f 42f
10:18 6
mph
1016.3mb 47f 41f
10:12 3 6 mph 1016.3mb 47f 41f
10:06 5 6 mph 1016.3mb 47f 41f
10:00 3 6 mph 1016.2mb 47f 41f
9:54 3 9 mph 1015.9mb 47f 41f
9:48 6 8 mph 1015.7mb 47f 41f
9:42 7 11 mph 1015.7mb 47f 41f
9:36 7 11 mph 1015.9mb 47f 41f
9:30 8 9 mph 1015.6mb 47f 41f
9:24 7 9 mph 1015.8mb 47f 40f
9:18 7 8 mph 1015.6mb 47f 41f
9:12 5 6 mph 1015.9mb 47f 40f
9:06 5 7 mph 1015.8mb 47f 40f
9:00 5 6 mph 1015.7mb 47f 40f
8:54 3 5 mph 1015.5mb 47f 39f
8:48 2
mph
1015.7mb 47f 39f
8:42 2 3 mph 1016.1mb 47f 39f
8:36  -  1 mph 1015.8mb 47f 39f
8:30  -  2 mph 1015.7mb 47f 39f
8:24  -  1 mph 1015.6mb 47f 39f
8:18  -  1 mph 1015.4mb 47f 38f
8:12 1 3 mph 1015.1mb 47f 38f
8:06 3
mph
1015.2mb 47f 38f
8:00 3 5 mph 1015.4mb 47f 37f
7:54 3 5 mph 1015.3mb 46f 37f
7:48 3
mph
1015.4mb 46f 37f
7:42 1
mph
1015.2mb 46f 37f
7:36 1 3 mph 1015.4mb 46f 37f
7:30 2 3 mph 1015.4mb 46f 37f
7:24  -  1 mph 1015mb 46f 37f
7:18  -  1 mph 1014.6mb 46f 37f
7:12  -  2 mph 1014.7mb 46f 37f
7:06 2 5 mph 1014.8mb 46f 37f
7:00 2 3 mph 1014.6mb 46f 36f
6:54 2 5 mph 1014.2mb 46f 35f
6:48 5
mph
1014mb 46f 36f
6:42 3 5 mph 1014.1mb 46f 36f
6:36 3
mph
1014.1mb 46f 36f
6:30 2 3 mph 1013.9mb 46f 37f
6:24 2
mph
1013.9mb 46f 37f
6:18 2
mph
1013.9mb 46f 37f
6:12 2 3 mph 1014mb 46f 37f
6:06  -  1 mph 1013.9mb 46f 38f
6:00 1 3 mph 1013.9mb 46f 38f
5:54 2 5 mph 1014.1mb 46f 38f
5:48 3 5 mph 1014mb 46f 38f
5:42 3 5 mph 1013.6mb 46f 38f
5:36 2 3 mph 1013.6mb 46f 38f
5:30 1 2 mph 1013.5mb 46f 39f
5:24 1 3 mph 1013.2mb 46f 38f
5:18 2 3 mph 1013mb 46f 39f
5:12 3 5 mph 1013mb 46f 39f
5:06 3 5 mph 1012.9mb 46f 39f
5:00 3
mph
1012.4mb 46f 39f
4:54 3
mph
1012.6mb 46f 39f
4:48 3
mph
1012.7mb 46f 39f
4:42 1 2 mph 1012.6mb 46f 39f
4:36 2 6 mph 1012.5mb 46f 39f
4:30 5 6 mph 1012.3mb 46f 39f
4:24 6 7 mph 1012.3mb 46f 40f
4:18 6 11 mph 1012.3mb 46f 40f
4:12 8 10 mph 1012.2mb 46f 40f
4:06 8 10 mph 1012.2mb 46f 39f
4:00 8 11 mph 1012.1mb 46f 39f
3:54 9 14 mph 1012mb 46f 40f
3:48 9 13 mph 1011.9mb 46f 40f
3:42 8 13 mph 1012mb 46f 40f
3:36 9 13 mph 1011.8mb 46f 40f
3:30 9 10 mph 1011.8mb 47f 39f
3:24 7 10 mph 1012mb 46f 39f
3:18 3 5 mph 1012mb 46f 39f
3:12 2 5 mph 1012mb 46f 39f
3:06 2 5 mph 1012mb 47f 39f
3:00 2 3 mph 1011.9mb 47f 39f
2:54 2 5 mph 1011.8mb 47f 39f
2:48 2 3 mph 1011.7mb 47f 39f
2:42 2 3 mph 1011.5mb 47f 39f
2:36 2 5 mph 1011.5mb 47f 39f
2:30 2 5 mph 1011.3mb 47f 39f
2:24 3 6 mph 1011.4mb 47f 39f
2:18 5 6 mph 1011.3mb 47f 39f
2:12 6 8 mph 1011.1mb 47f 39f
2:06 6 8 mph 1011mb 47f 39f
2:00 5 7 mph 1011.1mb 47f 39f
1:54 5 8 mph 1010.9mb 47f 39f
1:48 6 8 mph 1010.9mb 47f 39f
1:42 5 7 mph 1010.6mb 47f 39f
1:36 6 8 mph 1010.5mb 47f 39f
1:30 7 9 mph 1010.5mb 47f 39f
1:24 7 10 mph 1010.3mb 47f 39f
1:18 7 10 mph 1010.3mb 47f 39f
1:12 6 10 mph 1010.2mb 47f 39f
1:06 7 10 mph 1010.3mb 47f 40f
1:00 7 10 mph 1010.2mb 47f 40f
12:54 8 10 mph 1010.1mb 47f 40f
12:48 10 13 mph 1010.1mb - -
12:42 9 10 mph 1010mb - -
12:36 8 10 mph 1010.1mb - -
12:30 8 10 mph 1010.1mb 47f 40f
12:24 7 11 mph 1010.2mb 47f 40f
12:18 7 11 mph 1010.1mb 47f 40f
12:12 9 13 mph 1009.9mb 47f 40f
12:06 10 14 mph 1009.8mb 47f 40f
12:00 10 15 mph 1009.6mb 47f 40f